createdAt,value
2023-04-02T00:01:02.940Z,6.10
2023-04-02T00:03:44.982Z,6.08
2023-04-02T00:06:33.254Z,6.03
2023-04-02T00:09:23.309Z,6.05
2023-04-02T00:11:55.656Z,6.06
2023-04-02T00:14:33.681Z,6.07
2023-04-02T00:17:03.558Z,5.95
2023-04-02T00:19:45.644Z,5.93
2023-04-02T00:22:21.232Z,5.92
2023-04-02T00:24:52.078Z,5.87
2023-04-02T00:27:20.016Z,5.80
2023-04-02T00:29:58.797Z,5.70
2023-04-02T00:32:28.131Z,5.65
2023-04-02T00:34:58.676Z,5.68
2023-04-02T00:37:28.295Z,5.71
2023-04-02T00:40:07.173Z,5.65
2023-04-02T00:42:35.885Z,5.60
2023-04-02T00:45:04.220Z,5.59
2023-04-02T00:47:37.598Z,5.55
2023-04-02T00:50:04.610Z,5.52
2023-04-02T00:52:35.887Z,5.48
2023-04-02T00:55:17.730Z,5.54
2023-04-02T00:57:45.579Z,5.50
2023-04-02T01:00:19.236Z,5.52
2023-04-02T01:03:16.447Z,5.46
2023-04-02T01:05:45.335Z,5.45
2023-04-02T01:08:34.956Z,5.36
2023-04-02T01:11:19.452Z,5.34
2023-04-02T01:13:53.578Z,5.26
2023-04-02T01:16:42.207Z,5.18
2023-04-02T01:19:53.594Z,5.18
2023-04-02T01:22:30.952Z,5.09
2023-04-02T01:24:58.246Z,5.03
2023-04-02T01:27:34.794Z,5.04
2023-04-02T01:30:03.130Z,5.05
2023-04-02T01:32:30.943Z,5.01
2023-04-02T01:34:58.304Z,5.01
2023-04-02T01:37:49.499Z,5.10
2023-04-02T01:40:17.210Z,5.14
2023-04-02T01:43:05.291Z,5.15
2023-04-02T01:45:32.174Z,5.17
2023-04-02T01:47:59.211Z,5.14
2023-04-02T01:50:33.461Z,5.07
2023-04-02T01:53:03.409Z,5.10
2023-04-02T01:55:53.965Z,5.12
2023-04-02T01:58:25.373Z,5.11
2023-04-02T02:01:14.839Z,5.05
2023-04-02T02:03:43.623Z,5.02
2023-04-02T02:06:16.602Z,4.97
2023-04-02T02:08:58.205Z,4.88
2023-04-02T02:11:28.557Z,4.82
2023-04-02T02:14:00.991Z,4.82
2023-04-02T02:16:32.017Z,4.85
2023-04-02T02:19:03.015Z,4.78
2023-04-02T02:21:49.609Z,4.72
2023-04-02T02:24:37.064Z,4.66
2023-04-02T02:27:18.781Z,4.71
2023-04-02T02:29:49.436Z,4.67
2023-04-02T02:32:17.918Z,4.63
2023-04-02T02:34:54.405Z,4.59
2023-04-02T02:37:29.343Z,4.55
2023-04-02T02:40:00.331Z,4.61
2023-04-02T02:42:32.732Z,4.57
2023-04-02T02:45:01.964Z,4.58
2023-04-02T02:47:29.236Z,4.57
2023-04-02T02:49:59.678Z,4.59
2023-04-02T02:52:30.966Z,4.57
2023-04-02T02:55:16.099Z,4.55
2023-04-02T02:57:48.349Z,4.51
2023-04-02T03:00:17.715Z,4.41
2023-04-02T03:02:44.754Z,4.39
2023-04-02T03:05:17.772Z,4.33
2023-04-02T03:07:44.362Z,4.31
2023-04-02T03:10:19.437Z,4.31
2023-04-02T03:12:54.563Z,4.31
2023-04-02T03:15:46.756Z,4.34
2023-04-02T03:18:45.607Z,4.36
2023-04-02T03:21:22.489Z,4.41
2023-04-02T03:24:03.265Z,4.39
2023-04-02T03:26:44.281Z,4.45
2023-04-02T03:29:22.449Z,4.48
2023-04-02T03:31:56.109Z,4.41
2023-04-02T03:34:33.198Z,4.44
2023-04-02T03:37:05.487Z,4.41
2023-04-02T03:39:36.204Z,4.46
2023-04-02T03:42:10.198Z,4.47
2023-04-02T03:44:44.643Z,4.44
2023-04-02T03:47:31.158Z,4.44
2023-04-02T03:50:06.856Z,4.40
2023-04-02T03:52:36.789Z,4.38
2023-04-02T03:55:16.152Z,4.28
2023-04-02T03:58:06.998Z,4.30
2023-04-02T04:00:50.756Z,4.21
2023-04-02T04:03:25.261Z,4.15
2023-04-02T04:05:57.447Z,4.15
2023-04-02T04:08:30.601Z,4.19
2023-04-02T04:11:01.880Z,4.10
2023-04-02T04:13:56.743Z,4.09
2023-04-02T04:16:32.440Z,4.10
2023-04-02T04:19:18.116Z,4.04
2023-04-02T04:21:46.175Z,4.04
2023-04-02T04:24:22.334Z,3.98
2023-04-02T04:27:17.113Z,4.00
2023-04-02T04:29:57.906Z,3.96
2023-04-02T04:32:33.645Z,3.99
2023-04-02T04:35:15.952Z,4.02
2023-04-02T04:37:44.916Z,4.08
2023-04-02T04:40:34.263Z,3.99
2023-04-02T04:43:06.164Z,3.96
2023-04-02T04:45:41.605Z,3.89
2023-04-02T04:48:31.380Z,3.92
2023-04-02T04:51:01.842Z,3.92
2023-04-02T04:53:30.434Z,3.87
2023-04-02T04:56:18.018Z,3.89
2023-04-02T04:59:15.779Z,3.87
2023-04-02T05:02:05.998Z,3.84
2023-04-02T05:04:38.189Z,3.81
2023-04-02T05:07:13.930Z,3.80
2023-04-02T05:09:45.874Z,3.80
2023-04-02T05:12:43.776Z,3.77
2023-04-02T05:15:32.175Z,3.83
2023-04-02T05:18:20.835Z,3.84
2023-04-02T05:21:03.953Z,3.81
2023-04-02T05:23:34.251Z,3.88
2023-04-02T05:26:13.756Z,3.89
2023-04-02T05:28:50.861Z,3.86
2023-04-02T05:31:26.664Z,3.81
2023-04-02T05:33:55.028Z,3.82
2023-04-02T05:36:27.896Z,3.77
2023-04-02T05:38:56.422Z,3.66
2023-04-02T05:41:27.137Z,3.60
2023-04-02T05:43:59.842Z,3.64
2023-04-02T05:46:30.956Z,3.65
2023-04-02T05:48:59.150Z,3.65
2023-04-02T05:51:47.367Z,3.65
2023-04-02T05:54:29.449Z,3.68
2023-04-02T05:57:02.926Z,3.70
2023-04-02T05:59:34.108Z,3.74
2023-04-02T06:02:32.828Z,3.82
2023-04-02T06:05:20.328Z,3.68
2023-04-02T06:08:03.689Z,3.71
2023-04-02T06:10:35.277Z,3.69
2023-04-02T06:13:08.823Z,3.65
2023-04-02T06:15:37.939Z,3.69
2023-04-02T06:18:20.613Z,3.66
2023-04-02T06:20:47.504Z,3.70
2023-04-02T06:23:24.430Z,3.76
2023-04-02T06:26:14.678Z,3.72
2023-04-02T06:28:45.723Z,3.79
2023-04-02T06:31:23.721Z,3.80
2023-04-02T06:33:52.422Z,3.78
2023-04-02T06:36:20.408Z,3.78
2023-04-02T06:38:49.155Z,3.81
2023-04-02T06:41:22.014Z,3.81
2023-04-02T06:44:20.832Z,3.83
2023-04-02T06:46:54.045Z,3.82
2023-04-02T06:49:33.242Z,3.84
2023-04-02T06:52:02.225Z,3.82
2023-04-02T06:54:28.850Z,3.86
2023-04-02T06:56:58.919Z,3.93
2023-04-02T06:59:26.016Z,3.92
2023-04-02T07:01:58.713Z,3.89
2023-04-02T07:04:26.003Z,3.85
2023-04-02T07:06:53.306Z,3.79
2023-04-02T07:09:19.839Z,3.80
2023-04-02T07:11:46.411Z,3.80
2023-04-02T07:14:13.095Z,3.81
2023-04-02T07:16:41.029Z,3.89
2023-04-02T07:19:07.860Z,3.84
2023-04-02T07:21:34.351Z,3.80
2023-04-02T07:24:00.899Z,3.80
2023-04-02T07:26:28.235Z,3.76
2023-04-02T07:28:55.835Z,3.75
2023-04-02T07:31:25.902Z,3.69
2023-04-02T07:33:54.946Z,3.64
2023-04-02T07:36:23.819Z,3.70
2023-04-02T07:38:50.775Z,3.64
2023-04-02T07:41:18.314Z,3.66
2023-04-02T07:43:45.554Z,3.73
2023-04-02T07:46:14.961Z,3.86
2023-04-02T07:48:41.500Z,3.80
2023-04-02T07:51:23.518Z,3.83
2023-04-02T07:53:51.168Z,3.79
2023-04-02T07:56:19.987Z,3.81
2023-04-02T07:58:47.381Z,3.84
2023-04-02T08:01:26.490Z,3.99
2023-04-02T08:03:54.976Z,4.07
2023-04-02T08:06:22.694Z,4.12
2023-04-02T08:08:49.575Z,4.20
2023-04-02T08:11:16.469Z,4.13
2023-04-02T08:13:43.468Z,4.14
2023-04-02T08:16:10.700Z,4.03
2023-04-02T08:18:37.311Z,3.98
2023-04-02T08:21:07.929Z,4.01
2023-04-02T08:23:35.823Z,3.98
2023-04-02T08:26:02.617Z,4.10
2023-04-02T08:28:29.056Z,4.12
2023-04-02T08:30:55.629Z,4.08
2023-04-02T08:33:22.101Z,4.08
2023-04-02T08:35:49.617Z,4.14
2023-04-02T08:38:21.622Z,4.22
2023-04-02T08:40:51.617Z,4.15
2023-04-02T08:43:30.972Z,4.17
2023-04-02T08:46:15.527Z,4.19
2023-04-02T08:48:47.431Z,4.20
2023-04-02T08:51:26.627Z,4.17
2023-04-02T08:54:22.298Z,4.16
2023-04-02T08:57:03.109Z,4.22
2023-04-02T09:00:13.943Z,4.24
2023-04-02T09:02:47.319Z,4.11
2023-04-02T09:05:22.988Z,4.01
2023-04-02T09:07:52.413Z,4.12
2023-04-02T09:10:19.338Z,4.17
2023-04-02T09:12:51.141Z,4.15
2023-04-02T09:15:26.215Z,4.23
2023-04-02T09:18:00.887Z,4.24
2023-04-02T09:20:29.284Z,4.28
2023-04-02T09:22:56.724Z,4.27
2023-04-02T09:25:30.405Z,4.34
2023-04-02T09:28:00.721Z,4.36
2023-04-02T09:30:36.822Z,4.38
2023-04-02T09:33:09.049Z,4.40
2023-04-02T09:35:53.250Z,4.34
2023-04-02T09:38:21.924Z,4.36
2023-04-02T09:40:54.620Z,4.42
2023-04-02T09:43:22.514Z,4.39
2023-04-02T09:45:56.491Z,4.39
2023-04-02T09:48:30.564Z,4.52
2023-04-02T09:51:16.632Z,4.54
2023-04-02T09:54:07.701Z,4.48
2023-04-02T09:56:39.203Z,4.43
2023-04-02T09:59:21.653Z,4.49
2023-04-02T10:01:54.157Z,4.59
2023-04-02T10:04:50.218Z,4.59
2023-04-02T10:07:38.022Z,4.69
2023-04-02T10:10:27.618Z,4.83
2023-04-02T10:13:23.795Z,4.84
2023-04-02T10:15:53.334Z,4.84
2023-04-02T10:18:46.709Z,4.74
2023-04-02T10:21:18.291Z,4.67
2023-04-02T10:23:44.912Z,4.62
2023-04-02T10:26:35.891Z,4.63
2023-04-02T10:29:23.804Z,4.69
2023-04-02T10:32:14.914Z,4.76
2023-04-02T10:34:52.082Z,4.78
2023-04-02T10:37:45.788Z,4.74
2023-04-02T10:40:23.347Z,4.79
2023-04-02T10:43:07.179Z,4.87
2023-04-02T10:45:36.857Z,4.84
2023-04-02T10:48:11.363Z,4.94
2023-04-02T10:50:53.356Z,5.06
2023-04-02T10:53:26.235Z,5.23
2023-04-02T10:55:56.225Z,5.27
2023-04-02T10:58:26.644Z,5.39
2023-04-02T11:00:59.421Z,5.40
2023-04-02T11:03:53.071Z,5.43
2023-04-02T11:06:32.361Z,5.44
2023-04-02T11:09:04.930Z,5.47
2023-04-02T11:11:38.590Z,5.36
2023-04-02T11:14:20.905Z,5.31
2023-04-02T11:16:52.022Z,5.26
2023-04-02T11:19:18.511Z,5.23
2023-04-02T11:21:59.954Z,5.29
2023-04-02T11:24:31.655Z,5.33
2023-04-02T11:27:10.374Z,5.47
2023-04-02T11:29:44.560Z,5.61
2023-04-02T11:32:20.631Z,5.76
2023-04-02T11:34:51.394Z,5.93
2023-04-02T11:37:29.363Z,6.13
2023-04-02T11:39:59.638Z,6.19
2023-04-02T11:42:32.640Z,6.25
2023-04-02T11:45:21.313Z,6.43
2023-04-02T11:48:01.354Z,6.52
2023-04-02T11:50:30.011Z,6.59
2023-04-02T11:53:02.673Z,6.61
2023-04-02T11:55:36.952Z,6.56
2023-04-02T11:58:28.248Z,6.38
2023-04-02T12:01:33.391Z,6.28
2023-04-02T12:04:33.793Z,6.13
2023-04-02T12:07:10.814Z,6.19
2023-04-02T12:09:50.546Z,6.28
2023-04-02T12:12:29.149Z,6.29
2023-04-02T12:14:57.700Z,6.35
2023-04-02T12:17:31.630Z,6.34
2023-04-02T12:20:09.668Z,6.37
2023-04-02T12:22:40.468Z,6.50
2023-04-02T12:25:26.837Z,6.57
2023-04-02T12:28:28.997Z,6.95
2023-04-02T12:31:18.807Z,7.23
2023-04-02T12:33:45.939Z,7.08
2023-04-02T12:36:14.585Z,7.08
2023-04-02T12:38:50.056Z,7.05
2023-04-02T12:41:27.557Z,7.06
2023-04-02T12:44:02.666Z,7.09
2023-04-02T12:46:31.608Z,6.99
2023-04-02T12:49:22.851Z,7.06
2023-04-02T12:51:52.040Z,7.03
2023-04-02T12:54:20.958Z,7.09
2023-04-02T12:56:51.765Z,7.17
2023-04-02T12:59:30.389Z,7.27
2023-04-02T13:02:01.103Z,7.18
2023-04-02T13:04:28.324Z,7.07
2023-04-02T13:06:56.624Z,6.88
2023-04-02T13:09:30.046Z,6.76
2023-04-02T13:11:58.218Z,6.74
2023-04-02T13:14:27.168Z,6.77
2023-04-02T13:16:55.287Z,6.63
2023-04-02T13:19:33.607Z,6.69
2023-04-02T13:22:02.820Z,6.75
2023-04-02T13:24:31.800Z,6.85
2023-04-02T13:27:01.067Z,7.02
2023-04-02T13:29:36.735Z,7.05
2023-04-02T13:32:11.830Z,7.18
2023-04-02T13:34:38.415Z,7.17
2023-04-02T13:37:04.883Z,6.98
2023-04-02T13:39:31.465Z,7.08
2023-04-02T13:42:00.528Z,7.06
2023-04-02T13:44:27.994Z,6.94
2023-04-02T13:46:55.781Z,6.95
2023-04-02T13:49:24.535Z,6.99
2023-04-02T13:51:54.555Z,7.09
2023-04-02T13:54:21.311Z,7.25
2023-04-02T13:56:47.878Z,7.27
2023-04-02T13:59:14.384Z,7.34
2023-04-02T14:01:43.176Z,7.19
2023-04-02T14:04:13.734Z,7.13
2023-04-02T14:07:05.840Z,7.25
2023-04-02T14:10:09.834Z,7.27
2023-04-02T14:13:05.682Z,7.24
2023-04-02T14:15:56.544Z,7.29
2023-04-02T14:18:29.213Z,7.24
2023-04-02T14:21:49.933Z,7.17
2023-04-02T14:24:58.176Z,7.18
2023-04-02T14:27:45.967Z,7.45
2023-04-02T14:30:16.778Z,7.67
2023-04-02T14:32:59.214Z,7.89
2023-04-02T14:35:37.255Z,7.96
2023-04-02T14:38:43.154Z,7.83
2023-04-02T14:41:22.427Z,7.99
2023-04-02T14:43:57.746Z,7.92
2023-04-02T14:46:26.484Z,8.03
2023-04-02T14:48:56.569Z,7.86
2023-04-02T14:51:44.191Z,7.73
2023-04-02T14:54:16.548Z,7.70
2023-04-02T14:56:54.389Z,7.70
2023-04-02T14:59:46.043Z,7.62
2023-04-02T15:02:38.185Z,7.69
2023-04-02T15:05:23.002Z,7.90
2023-04-02T15:07:59.361Z,8.07
2023-04-02T15:10:31.472Z,8.15
2023-04-02T15:13:00.599Z,8.20
2023-04-02T15:16:14.703Z,8.22
2023-04-02T15:18:41.518Z,7.88
2023-04-02T15:21:29.738Z,7.61
2023-04-02T15:24:02.198Z,7.51
2023-04-02T15:26:38.223Z,7.75
2023-04-02T15:29:41.136Z,7.89
2023-04-02T15:32:22.478Z,7.78
2023-04-02T15:34:52.343Z,7.70
2023-04-02T15:37:34.858Z,7.70
2023-04-02T15:40:44.905Z,7.69
2023-04-02T15:43:55.956Z,7.66
2023-04-02T15:46:23.146Z,7.45
2023-04-02T15:49:20.726Z,7.20
2023-04-02T15:51:50.300Z,6.96
2023-04-02T15:54:22.790Z,6.89
2023-04-02T15:57:01.529Z,6.82
2023-04-02T15:59:41.887Z,6.81
2023-04-02T16:02:46.264Z,6.78
2023-04-02T16:05:37.975Z,6.72
2023-04-02T16:08:22.849Z,6.73
2023-04-02T16:10:49.369Z,6.71
2023-04-02T16:13:22.120Z,6.65
2023-04-02T16:16:03.789Z,6.61
2023-04-02T16:18:36.576Z,6.56
2023-04-02T16:21:03.709Z,6.51
2023-04-02T16:23:38.426Z,6.46
2023-04-02T16:26:12.905Z,6.53
2023-04-02T16:29:16.714Z,6.48
2023-04-02T16:32:14.113Z,6.51
2023-04-02T16:35:32.402Z,6.44
2023-04-02T16:38:02.440Z,6.40
2023-04-02T16:40:41.411Z,6.38
2023-04-02T16:43:17.031Z,6.38
2023-04-02T16:45:57.604Z,6.30
2023-04-02T16:48:50.544Z,6.29
2023-04-02T16:51:26.412Z,6.29
2023-04-02T16:54:16.367Z,6.20
2023-04-02T16:56:59.515Z,6.19
2023-04-02T16:59:50.309Z,6.19
2023-04-02T17:02:33.988Z,6.11
2023-04-02T17:05:09.702Z,6.04
2023-04-02T17:07:48.893Z,5.97
2023-04-02T17:10:30.566Z,5.91
2023-04-02T17:13:23.920Z,5.87
2023-04-02T17:16:00.238Z,5.85
2023-04-02T17:18:27.069Z,5.82
2023-04-02T17:20:54.500Z,5.85
2023-04-02T17:23:20.994Z,5.85
2023-04-02T17:25:57.780Z,5.81
2023-04-02T17:28:36.675Z,5.77
2023-04-02T17:31:25.246Z,5.75
2023-04-02T17:33:51.872Z,5.78
2023-04-02T17:36:27.518Z,5.75
2023-04-02T17:39:23.334Z,5.70
2023-04-02T17:42:07.812Z,5.71
2023-04-02T17:44:52.466Z,5.74
2023-04-02T17:47:46.888Z,5.75
2023-04-02T17:50:37.931Z,5.86
2023-04-02T17:53:16.533Z,5.92
2023-04-02T17:55:58.014Z,5.99
2023-04-02T17:58:43.522Z,5.96
2023-04-02T18:01:30.393Z,6.09
2023-04-02T18:03:59.609Z,6.17
2023-04-02T18:06:32.182Z,6.23
2023-04-02T18:09:20.444Z,6.26
2023-04-02T18:11:55.821Z,6.24
2023-04-02T18:14:39.692Z,6.28
2023-04-02T18:17:21.174Z,6.30
2023-04-02T18:19:58.421Z,6.29
2023-04-02T18:22:37.470Z,6.31
2023-04-02T18:25:28.062Z,6.23
2023-04-02T18:28:02.901Z,6.31
2023-04-02T18:30:36.077Z,6.31
2023-04-02T18:33:09.065Z,6.29
2023-04-02T18:35:35.520Z,6.31
2023-04-02T18:38:34.341Z,6.32
2023-04-02T18:41:19.125Z,6.25
2023-04-02T18:44:22.988Z,6.33
2023-04-02T18:46:54.222Z,6.24
2023-04-02T18:49:26.322Z,6.18
2023-04-02T18:51:58.549Z,6.29
2023-04-02T18:54:39.412Z,6.33
2023-04-02T18:57:15.595Z,6.36
2023-04-02T18:59:57.443Z,6.36
2023-04-02T19:02:40.808Z,6.35
2023-04-02T19:05:24.002Z,6.29
2023-04-02T19:07:55.130Z,6.16
2023-04-02T19:10:38.110Z,6.10
2023-04-02T19:13:19.615Z,5.99
2023-04-02T19:15:52.526Z,5.93
2023-04-02T19:18:43.202Z,5.82
2023-04-02T19:21:22.224Z,5.81
2023-04-02T19:24:02.379Z,5.76
2023-04-02T19:26:53.751Z,5.65
2023-04-02T19:29:39.190Z,5.60
2023-04-02T19:32:18.034Z,5.55
2023-04-02T19:35:02.722Z,5.57
2023-04-02T19:37:48.599Z,5.53
2023-04-02T19:40:19.610Z,5.53
2023-04-02T19:42:51.938Z,5.46
2023-04-02T19:45:36.338Z,5.48
2023-04-02T19:48:28.984Z,5.40
2023-04-02T19:50:55.517Z,5.38
2023-04-02T19:53:22.038Z,5.32
2023-04-02T19:55:48.697Z,5.28
2023-04-02T19:58:31.049Z,5.27
2023-04-02T20:00:57.759Z,5.24
2023-04-02T20:03:24.727Z,5.21
2023-04-02T20:05:51.271Z,5.14
2023-04-02T20:08:17.889Z,5.13
2023-04-02T20:10:45.383Z,5.10
2023-04-02T20:13:12.183Z,5.13
2023-04-02T20:15:41.774Z,5.12
2023-04-02T20:18:09.491Z,5.15
2023-04-02T20:20:37.082Z,5.12
2023-04-02T20:23:03.772Z,5.11
2023-04-02T20:25:30.400Z,5.02
2023-04-02T20:27:56.965Z,4.92
2023-04-02T20:30:23.741Z,4.95
2023-04-02T20:32:50.347Z,4.91
2023-04-02T20:35:17.003Z,4.86
2023-04-02T20:37:43.956Z,4.75
2023-04-02T20:40:10.768Z,4.75
2023-04-02T20:42:37.306Z,4.68
2023-04-02T20:45:06.171Z,4.69
2023-04-02T20:47:32.646Z,4.64
2023-04-02T20:49:59.271Z,4.64
2023-04-02T20:52:27.896Z,4.61
2023-04-02T20:54:54.381Z,4.64
2023-04-02T20:57:22.003Z,4.53
2023-04-02T20:59:48.938Z,4.54
2023-04-02T21:02:15.658Z,4.45
2023-04-02T21:04:42.138Z,4.45
2023-04-02T21:07:08.589Z,4.38
2023-04-02T21:09:35.297Z,4.38
2023-04-02T21:12:05.064Z,4.37
2023-04-02T21:14:36.004Z,4.27
2023-04-02T21:17:02.444Z,4.26
2023-04-02T21:19:28.886Z,4.23
2023-04-02T21:21:55.444Z,4.18
2023-04-02T21:24:22.186Z,4.17
2023-04-02T21:26:48.719Z,4.09
2023-04-02T21:29:18.062Z,4.10
2023-04-02T21:31:44.584Z,4.05
2023-04-02T21:34:16.372Z,4.01
2023-04-02T21:36:45.539Z,3.98
2023-04-02T21:39:17.876Z,4.01
2023-04-02T21:41:46.839Z,3.94
2023-04-02T21:44:15.305Z,3.95
2023-04-02T21:46:43.402Z,3.94
2023-04-02T21:49:15.958Z,3.92
2023-04-02T21:51:44.085Z,3.92
2023-04-02T21:54:10.774Z,3.88
2023-04-02T21:56:40.433Z,3.90
2023-04-02T21:59:08.445Z,3.85
2023-04-02T22:01:38.665Z,3.86
2023-04-02T22:04:16.570Z,3.88
2023-04-02T22:06:44.127Z,3.80
2023-04-02T22:09:14.129Z,3.71
2023-04-02T22:11:44.361Z,3.78
2023-04-02T22:14:11.378Z,3.66
2023-04-02T22:16:39.131Z,3.65
2023-04-02T22:19:08.709Z,3.61
2023-04-02T22:21:36.276Z,3.60
2023-04-02T22:24:04.976Z,3.61
2023-04-02T22:26:32.452Z,3.49
2023-04-02T22:29:00.227Z,3.53
2023-04-02T22:31:29.082Z,3.45
2023-04-02T22:33:57.567Z,3.56
2023-04-02T22:36:26.251Z,3.42
2023-04-02T22:38:53.034Z,3.53
2023-04-02T22:41:23.315Z,3.37
2023-04-02T22:43:49.962Z,3.37
2023-04-02T22:46:18.350Z,3.30
2023-04-02T22:48:46.312Z,3.16
2023-04-02T22:51:14.943Z,3.27
2023-04-02T22:53:42.862Z,3.12
2023-04-02T22:56:21.615Z,3.08
2023-04-02T22:58:48.706Z,3.13
2023-04-02T23:01:21.931Z,3.10
2023-04-02T23:03:49.054Z,3.03
2023-04-02T23:06:17.740Z,2.99
2023-04-02T23:08:45.289Z,3.09
2023-04-02T23:11:13.167Z,3.16
2023-04-02T23:13:40.484Z,3.01
2023-04-02T23:16:10.566Z,3.00
2023-04-02T23:18:38.439Z,3.07
2023-04-02T23:21:06.304Z,3.04
2023-04-02T23:23:33.560Z,3.00
2023-04-02T23:26:09.580Z,2.98
2023-04-02T23:28:37.659Z,2.91
2023-04-02T23:31:06.657Z,2.93
2023-04-02T23:33:34.233Z,2.82
2023-04-02T23:36:07.124Z,2.95
2023-04-02T23:38:33.788Z,3.01
2023-04-02T23:41:00.397Z,2.98
2023-04-02T23:43:27.460Z,2.93
2023-04-02T23:45:54.017Z,2.89
2023-04-02T23:48:20.659Z,2.82
2023-04-02T23:50:47.146Z,2.85
2023-04-02T23:53:13.773Z,2.93
2023-04-02T23:55:40.436Z,2.89
2023-04-02T23:58:07.052Z,2.95
